createdAt,value
2022-08-09T00:00:37.007Z,99986.66
2022-08-09T00:04:06.166Z,99991.38
2022-08-09T00:06:34.005Z,99986.47
2022-08-09T00:09:19.422Z,99985.97
2022-08-09T00:12:05.679Z,99990.34
2022-08-09T00:14:54.449Z,99996.09
2022-08-09T00:18:10.331Z,99970.09
2022-08-09T00:20:50.113Z,99890.56
2022-08-09T00:23:55.325Z,99977.63
2022-08-09T00:26:39.623Z,99986.38
2022-08-09T00:29:39.570Z,99967.88
2022-08-09T00:32:29.792Z,99985.19
2022-08-09T00:35:13.932Z,99975.63
2022-08-09T00:37:58.341Z,99978.13
2022-08-09T00:40:52.624Z,99985.28
2022-08-09T00:44:16.793Z,99981.56
2022-08-09T00:46:55.804Z,99992.38
2022-08-09T00:49:43.766Z,99986.16
2022-08-09T00:52:38.722Z,100008.91
2022-08-09T00:55:54.264Z,99966.59
2022-08-09T00:58:27.634Z,100000.66
2022-08-09T01:01:16.632Z,99994.63
2022-08-09T01:04:08.050Z,99988.59
2022-08-09T01:07:05.349Z,99969.75
2022-08-09T01:10:00.689Z,99974.53
2022-08-09T01:12:52.704Z,99984.91
2022-08-09T01:15:52.061Z,99971.03
2022-08-09T01:18:38.599Z,99977.66
2022-08-09T01:21:44.601Z,99964.66
2022-08-09T01:24:50.470Z,99955.38
2022-08-09T01:27:41.265Z,99959.88
2022-08-09T01:30:33.652Z,99950.78
2022-08-09T01:33:22.921Z,99941.41
2022-08-09T01:36:10.372Z,99936.72
2022-08-09T01:38:58.219Z,99938.53
2022-08-09T01:41:53.556Z,99939.34
2022-08-09T01:44:46.056Z,99934.28
2022-08-09T01:47:32.149Z,99948.41
2022-08-09T01:50:36.902Z,99935.81
2022-08-09T01:53:29.033Z,99936.84
2022-08-09T01:56:20.979Z,99928.06
2022-08-09T01:59:10.421Z,99929.81
2022-08-09T02:02:00.184Z,99930.72
2022-08-09T02:04:45.883Z,99925.69
2022-08-09T02:08:40.327Z,99937.84
2022-08-09T02:10:40.518Z,99929.00
2022-08-09T02:13:40.445Z,99926.00
2022-08-09T02:16:33.879Z,99933.78
2022-08-09T02:19:34.982Z,99945.25
2022-08-09T02:22:35.694Z,99947.59
2022-08-09T02:25:24.479Z,99939.56
2022-08-09T02:28:17.920Z,99938.75
2022-08-09T02:31:06.160Z,99946.00
2022-08-09T02:34:06.650Z,99932.75
2022-08-09T02:37:01.487Z,99943.88
2022-08-09T02:39:55.368Z,99924.75
2022-08-09T02:42:51.165Z,99945.72
2022-08-09T02:45:41.701Z,99961.44
2022-08-09T02:48:31.091Z,99958.69
2022-08-09T02:51:21.754Z,99953.78
2022-08-09T02:54:12.405Z,99965.53
2022-08-09T02:57:01.931Z,99952.47
2022-08-09T03:00:26.126Z,99963.22
2022-08-09T03:03:08.604Z,99969.28
2022-08-09T03:05:58.167Z,99942.16
2022-08-09T03:08:45.495Z,99969.50
2022-08-09T03:12:06.716Z,99970.69
2022-08-09T03:14:37.109Z,99983.34
2022-08-09T03:17:27.038Z,99987.78
2022-08-09T03:20:12.609Z,99996.56
2022-08-09T03:22:58.307Z,99991.09
2022-08-09T03:26:03.583Z,100005.63
2022-08-09T03:28:55.055Z,100008.34
2022-08-09T03:31:42.663Z,99977.00
2022-08-09T03:34:44.392Z,99979.34
2022-08-09T03:37:55.814Z,99974.84
2022-08-09T03:40:36.210Z,99985.19
2022-08-09T03:43:20.428Z,99999.66
2022-08-09T03:46:20.003Z,99994.00
2022-08-09T03:49:08.827Z,99981.19
2022-08-09T03:52:00.301Z,99995.44
2022-08-09T03:54:50.960Z,99995.59
2022-08-09T03:57:35.034Z,99989.31
2022-08-09T04:00:39.081Z,99992.19
2022-08-09T04:03:46.367Z,99999.00
2022-08-09T04:06:30.567Z,99951.66
2022-08-09T04:09:41.999Z,99998.16
2022-08-09T04:12:34.889Z,99984.38
2022-08-09T04:15:39.157Z,99997.31
2022-08-09T04:18:25.303Z,99965.66
2022-08-09T04:21:10.417Z,99999.91
2022-08-09T04:23:57.671Z,99999.84
2022-08-09T04:26:41.921Z,100000.53
2022-08-09T04:29:25.772Z,100000.22
2022-08-09T04:32:14.015Z,99973.44
2022-08-09T04:35:01.059Z,100003.66
2022-08-09T04:37:46.999Z,100009.38
2022-08-09T04:40:48.346Z,100006.69
2022-08-09T04:43:49.868Z,100015.63
2022-08-09T04:46:59.204Z,99987.00
2022-08-09T04:49:54.193Z,100005.84
2022-08-09T04:52:40.820Z,100020.00
2022-08-09T04:55:24.879Z,100013.94
2022-08-09T04:58:09.284Z,100019.00
2022-08-09T05:00:54.493Z,100014.81
2022-08-09T05:03:43.266Z,100018.66
2022-08-09T05:06:29.826Z,100013.28
2022-08-09T05:09:21.599Z,99990.69
2022-08-09T05:12:06.286Z,99987.47
2022-08-09T05:14:50.306Z,99999.09
2022-08-09T05:18:39.414Z,99991.13
2022-08-09T05:20:38.919Z,100019.19
2022-08-09T05:24:00.998Z,100021.28
2022-08-09T05:26:36.776Z,100012.84
2022-08-09T05:29:31.556Z,100014.88
2022-08-09T05:32:15.909Z,100012.50
2022-08-09T05:35:00.231Z,100039.69
2022-08-09T05:37:47.629Z,100018.66
2022-08-09T05:40:31.920Z,100020.41
2022-08-09T05:43:17.225Z,100012.56
2022-08-09T05:46:01.712Z,100019.19
2022-08-09T05:48:48.679Z,100014.81
2022-08-09T05:51:46.359Z,100026.03
2022-08-09T05:54:30.587Z,100014.31
2022-08-09T05:57:17.610Z,100013.09
2022-08-09T06:00:07.625Z,100020.19
2022-08-09T06:02:57.828Z,99981.63
2022-08-09T06:05:54.834Z,100019.50
2022-08-09T06:08:44.879Z,100024.81
2022-08-09T06:11:40.963Z,100015.72
2022-08-09T06:14:40.682Z,100023.94
2022-08-09T06:17:26.159Z,100021.59
2022-08-09T06:20:23.432Z,100019.88
2022-08-09T06:23:08.496Z,99980.06
2022-08-09T06:25:56.376Z,100032.91
2022-08-09T06:28:43.299Z,100025.84
2022-08-09T06:31:31.385Z,100033.06
2022-08-09T06:34:26.389Z,100037.94
2022-08-09T06:37:14.820Z,100015.59
2022-08-09T06:40:01.268Z,100028.19
2022-08-09T06:42:49.746Z,100022.06
2022-08-09T06:46:07.814Z,100000.19
2022-08-09T06:48:42.549Z,100021.28
2022-08-09T06:51:28.489Z,100015.84
2022-08-09T06:54:14.818Z,100015.19
2022-08-09T06:56:59.284Z,100013.22
2022-08-09T07:00:50.509Z,100048.16
2022-08-09T07:02:50.796Z,100038.00
2022-08-09T07:06:02.443Z,100010.59
2022-08-09T07:08:40.824Z,100035.72
2022-08-09T07:11:25.635Z,99975.44
2022-08-09T07:14:09.830Z,100007.97
2022-08-09T07:16:58.052Z,100021.16
2022-08-09T07:19:42.629Z,100010.88
2022-08-09T07:22:34.591Z,99987.84
2022-08-09T07:25:21.925Z,100004.00
2022-08-09T07:28:07.227Z,100029.31
2022-08-09T07:30:54.127Z,100019.47
2022-08-09T07:33:52.207Z,100027.03
2022-08-09T07:36:41.012Z,100011.53
2022-08-09T07:39:40.405Z,100029.94
2022-08-09T07:42:32.701Z,100019.91
2022-08-09T07:45:36.841Z,100019.00
2022-08-09T07:48:22.537Z,100031.16
2022-08-09T07:52:05.358Z,100021.47
2022-08-09T07:54:19.251Z,100021.81
2022-08-09T07:57:12.184Z,100031.66
2022-08-09T08:00:03.447Z,100028.06
2022-08-09T08:02:56.082Z,100017.50
2022-08-09T08:05:53.865Z,100011.59
2022-08-09T08:09:01.960Z,100015.56
2022-08-09T08:12:24.303Z,100022.91
2022-08-09T08:14:49.613Z,100012.75
2022-08-09T08:17:55.234Z,100003.72
2022-08-09T08:20:39.784Z,100003.81
2022-08-09T08:23:27.340Z,100007.53
2022-08-09T08:26:11.707Z,100014.34
2022-08-09T08:28:56.941Z,100030.50
2022-08-09T08:32:02.573Z,100003.03
2022-08-09T08:34:46.665Z,99991.72
2022-08-09T08:37:41.912Z,100008.47
2022-08-09T08:40:40.242Z,100006.94
2022-08-09T08:43:26.492Z,99998.31
2022-08-09T08:46:32.420Z,99990.84
2022-08-09T08:49:19.243Z,100003.88
2022-08-09T08:52:10.276Z,99979.81
2022-08-09T08:54:55.659Z,99997.03
2022-08-09T08:57:39.578Z,99997.66
2022-08-09T09:00:27.684Z,99997.19
2022-08-09T09:03:23.128Z,99993.91
2022-08-09T09:06:18.782Z,99994.69
2022-08-09T09:09:20.990Z,99984.41
2022-08-09T09:12:16.725Z,100002.72
2022-08-09T09:15:02.271Z,99987.59
2022-08-09T09:17:53.043Z,99966.97
2022-08-09T09:20:38.826Z,99991.34
2022-08-09T09:23:49.935Z,99978.66
2022-08-09T09:26:55.994Z,99980.16
2022-08-09T09:30:08.446Z,99972.38
2022-08-09T09:33:02.763Z,99967.56
2022-08-09T09:36:01.947Z,99973.25
2022-08-09T09:38:50.315Z,99966.50
2022-08-09T09:41:49.061Z,99975.19
2022-08-09T09:44:35.844Z,99962.19
2022-08-09T09:47:21.768Z,99945.06
2022-08-09T09:50:14.987Z,99955.88
2022-08-09T09:53:01.634Z,99956.59
2022-08-09T09:56:04.563Z,99956.94
2022-08-09T09:58:50.328Z,99950.78
2022-08-09T10:01:40.890Z,99946.38
2022-08-09T10:04:30.923Z,99962.47
2022-08-09T10:07:26.903Z,99948.28
2022-08-09T10:10:13.972Z,99939.19
2022-08-09T10:13:02.863Z,99928.50
2022-08-09T10:16:09.536Z,99947.22
2022-08-09T10:18:56.908Z,99938.50
2022-08-09T10:21:49.060Z,99959.78
2022-08-09T10:24:35.986Z,99929.22
2022-08-09T10:27:24.761Z,99943.56
2022-08-09T10:34:04.828Z,99944.38
2022-08-09T10:36:24.589Z,99947.34
2022-08-09T10:39:15.423Z,99942.44
2022-08-09T10:42:00.393Z,99948.84
2022-08-09T10:44:51.456Z,99926.03
2022-08-09T10:48:16.476Z,99964.03
2022-08-09T10:51:13.742Z,99937.00
2022-08-09T10:54:05.993Z,99916.50
2022-08-09T10:57:09.314Z,99925.84
2022-08-09T10:59:53.852Z,99957.50
2022-08-09T11:03:11.076Z,99942.03
2022-08-09T11:06:25.483Z,99941.13
2022-08-09T11:09:15.756Z,99944.84
2022-08-09T11:12:15.070Z,99917.31
2022-08-09T11:15:03.065Z,99920.34
2022-08-09T11:17:53.771Z,99936.38
2022-08-09T11:20:49.716Z,99934.72
2022-08-09T11:24:04.161Z,99934.03
2022-08-09T11:26:54.550Z,99940.00
2022-08-09T11:30:03.980Z,99913.59
2022-08-09T11:32:50.896Z,99923.72
2022-08-09T11:35:50.387Z,99930.75
2022-08-09T11:38:41.462Z,99921.03
2022-08-09T11:41:37.625Z,99929.94
2022-08-09T11:44:44.709Z,99918.13
2022-08-09T11:47:47.274Z,99908.75
2022-08-09T11:50:54.186Z,99914.72
2022-08-09T11:53:59.318Z,99905.78
2022-08-09T11:56:48.141Z,99911.72
2022-08-09T11:59:33.730Z,99911.91
2022-08-09T12:02:37.350Z,99912.66
2022-08-09T12:05:23.026Z,99899.59
2022-08-09T12:08:12.529Z,99901.66
2022-08-09T12:11:12.753Z,99887.44
2022-08-09T12:14:09.289Z,99901.81
2022-08-09T12:16:56.296Z,99905.22
2022-08-09T12:19:42.810Z,99902.94
2022-08-09T12:22:27.678Z,99904.09
2022-08-09T12:25:15.237Z,99906.56
2022-08-09T12:29:15.302Z,99903.66
2022-08-09T12:31:59.163Z,99889.63
2022-08-09T12:34:34.564Z,99886.84
2022-08-09T12:37:23.481Z,99889.09
2022-08-09T12:40:11.209Z,99893.25
2022-08-09T12:42:57.012Z,99872.47
2022-08-09T12:45:43.735Z,99884.19
2022-08-09T12:48:44.795Z,99888.28
2022-08-09T12:51:52.578Z,99872.44
2022-08-09T12:56:12.475Z,99871.25
2022-08-09T12:57:54.849Z,99861.66
2022-08-09T13:00:47.586Z,99868.47
2022-08-09T13:03:53.861Z,99871.22
2022-08-09T13:06:42.957Z,99857.50
2022-08-09T13:09:30.707Z,99861.06
2022-08-09T13:12:14.675Z,99864.06
2022-08-09T13:15:08.351Z,99845.38
2022-08-09T13:18:05.224Z,99854.91
2022-08-09T13:22:34.282Z,99869.94
2022-08-09T13:24:17.100Z,99859.47
2022-08-09T13:27:06.933Z,99857.00
2022-08-09T13:30:04.003Z,99862.94
2022-08-09T13:32:59.420Z,99852.53
2022-08-09T13:36:39.296Z,99869.50
2022-08-09T13:38:55.886Z,99843.88
2022-08-09T13:41:57.643Z,99846.72
2022-08-09T13:44:45.846Z,99858.75
2022-08-09T13:47:48.979Z,99866.59
2022-08-09T13:50:35.903Z,99851.69
2022-08-09T13:53:19.892Z,99865.00
2022-08-09T13:56:21.356Z,99859.69
2022-08-09T13:59:09.775Z,99855.75
2022-08-09T14:02:01.476Z,99849.59
2022-08-09T14:04:49.374Z,99851.03
2022-08-09T14:07:45.053Z,99851.44
2022-08-09T14:10:46.336Z,99856.00
2022-08-09T14:14:22.451Z,99849.53
2022-08-09T14:16:38.675Z,99830.06
2022-08-09T14:19:24.507Z,99847.69
2022-08-09T14:22:09.088Z,99847.25
2022-08-09T14:24:54.799Z,99870.97
2022-08-09T14:27:57.150Z,99823.53
2022-08-09T14:30:42.993Z,99805.94
2022-08-09T14:33:27.196Z,99827.31
2022-08-09T14:36:19.727Z,99831.50
2022-08-09T14:39:08.735Z,99829.19
2022-08-09T14:41:54.330Z,99823.44
2022-08-09T14:44:48.966Z,99847.81
2022-08-09T14:47:49.637Z,99829.97
2022-08-09T14:50:43.085Z,99836.34
2022-08-09T14:53:29.818Z,99835.38
2022-08-09T14:56:15.578Z,99837.88
2022-08-09T14:59:00.937Z,99831.09
2022-08-09T15:01:44.830Z,99858.25
2022-08-09T15:04:31.163Z,99833.00
2022-08-09T15:07:15.226Z,99833.31
2022-08-09T15:10:07.504Z,99830.94
2022-08-09T15:12:55.530Z,99806.31
2022-08-09T15:15:43.676Z,99815.88
2022-08-09T15:18:27.820Z,99825.78
2022-08-09T15:21:54.854Z,99820.28
2022-08-09T15:24:24.198Z,99822.41
2022-08-09T15:27:11.297Z,99819.69
2022-08-09T15:30:59.255Z,99818.69
2022-08-09T15:33:00.550Z,99835.56
2022-08-09T15:36:01.644Z,99821.44
2022-08-09T15:38:46.361Z,99817.13
2022-08-09T15:41:32.486Z,99816.56
2022-08-09T15:44:16.540Z,99803.66
2022-08-09T15:47:03.826Z,99805.22
2022-08-09T15:50:03.606Z,99816.03
2022-08-09T15:52:54.964Z,99823.63
2022-08-09T15:56:10.890Z,99823.56
2022-08-09T15:58:54.524Z,99794.81
2022-08-09T16:01:38.496Z,99824.75
2022-08-09T16:04:23.431Z,99811.06
2022-08-09T16:07:14.239Z,99801.53
2022-08-09T16:10:04.870Z,99813.53
2022-08-09T16:12:50.257Z,99811.88
2022-08-09T16:16:04.604Z,99818.09
2022-08-09T16:18:44.863Z,99816.94
2022-08-09T16:21:31.798Z,99822.72
2022-08-09T16:24:32.998Z,99819.47
2022-08-09T16:27:18.157Z,99822.19
2022-08-09T16:30:02.703Z,99839.22
2022-08-09T16:33:08.162Z,99824.84
2022-08-09T16:35:57.210Z,99811.38
2022-08-09T16:38:44.857Z,99826.16
2022-08-09T16:42:02.237Z,99833.72
2022-08-09T16:44:40.771Z,99827.47
2022-08-09T16:48:38.346Z,99830.84
2022-08-09T16:50:33.866Z,99837.91
2022-08-09T16:53:18.748Z,99839.28
2022-08-09T16:56:10.281Z,99811.19
2022-08-09T16:58:56.036Z,99839.56
2022-08-09T17:01:43.859Z,99837.31
2022-08-09T17:04:34.533Z,99825.53
2022-08-09T17:08:43.600Z,99841.25
2022-08-09T17:10:23.807Z,99814.94
2022-08-09T17:13:07.652Z,99840.47
2022-08-09T17:16:00.026Z,99846.28
2022-08-09T17:18:45.926Z,99839.91
2022-08-09T17:21:32.054Z,99832.22
2022-08-09T17:24:20.645Z,99833.75
2022-08-09T17:27:11.960Z,99838.72
2022-08-09T17:29:59.089Z,99843.06
2022-08-09T17:32:45.540Z,99842.13
2022-08-09T17:35:31.151Z,99843.47
2022-08-09T17:38:31.026Z,99850.56
2022-08-09T17:41:19.452Z,99847.22
2022-08-09T17:44:38.118Z,99857.06
2022-08-09T17:47:10.432Z,99839.06
2022-08-09T17:50:04.014Z,99817.66
2022-08-09T17:52:55.072Z,99857.56
2022-08-09T17:55:49.273Z,99858.13
2022-08-09T17:58:33.631Z,99861.06
2022-08-09T18:01:23.228Z,99869.00
2022-08-09T18:04:07.665Z,99861.94
2022-08-09T18:06:55.754Z,99875.75
2022-08-09T18:09:41.463Z,99855.44
2022-08-09T18:12:30.111Z,99882.63
2022-08-09T18:15:50.299Z,99880.03
2022-08-09T18:18:32.524Z,99845.28
2022-08-09T18:21:23.543Z,99894.38
2022-08-09T18:24:14.431Z,99866.22
2022-08-09T18:27:01.034Z,99876.13
2022-08-09T18:30:40.039Z,99893.31
2022-08-09T18:32:54.245Z,99900.16
2022-08-09T18:35:58.356Z,99900.47
2022-08-09T18:38:42.629Z,99906.66
2022-08-09T18:41:27.868Z,99904.88
2022-08-09T18:44:13.641Z,99888.94
2022-08-09T18:47:08.470Z,99895.88
2022-08-09T18:50:02.842Z,99902.16
2022-08-09T18:52:50.805Z,99884.13
2022-08-09T18:55:56.489Z,99896.84
2022-08-09T18:58:40.175Z,99894.66
2022-08-09T19:01:24.132Z,99898.41
2022-08-09T19:04:09.022Z,99897.56
2022-08-09T19:06:52.831Z,99888.00
2022-08-09T19:10:14.867Z,99895.56
2022-08-09T19:12:41.369Z,99870.44
2022-08-09T19:15:30.962Z,99898.94
2022-08-09T19:18:16.974Z,99895.84
2022-08-09T19:21:02.597Z,99891.44
2022-08-09T19:24:32.489Z,99905.28
2022-08-09T19:26:51.707Z,99910.81
2022-08-09T19:29:38.199Z,99903.59
2022-08-09T19:32:41.273Z,99898.44
2022-08-09T19:35:26.718Z,99901.94
2022-08-09T19:38:10.641Z,99896.88
2022-08-09T19:40:54.925Z,99877.84
2022-08-09T19:44:00.593Z,99903.41
2022-08-09T19:46:50.478Z,99899.47
2022-08-09T19:50:07.382Z,99901.09
2022-08-09T19:52:51.741Z,99891.41
2022-08-09T19:56:02.994Z,99910.50
2022-08-09T19:58:40.488Z,99905.31
2022-08-09T20:02:03.190Z,99908.22
2022-08-09T20:04:47.546Z,99911.53
2022-08-09T20:07:58.838Z,99876.44
2022-08-09T20:10:40.812Z,99888.50
2022-08-09T20:13:27.628Z,99905.00
2022-08-09T20:16:37.360Z,99901.47
2022-08-09T20:19:48.750Z,99899.66
2022-08-09T20:22:32.247Z,99909.75
2022-08-09T20:25:22.713Z,99906.97
2022-08-09T20:28:06.861Z,99909.38
2022-08-09T20:30:51.044Z,99906.28
2022-08-09T20:33:39.071Z,99909.28
2022-08-09T20:36:27.274Z,99902.13
2022-08-09T20:39:29.094Z,99915.72
2022-08-09T20:42:16.550Z,99920.03
2022-08-09T20:45:57.474Z,99928.63
2022-08-09T20:48:06.530Z,99903.97
2022-08-09T20:50:57.896Z,99909.19
2022-08-09T20:53:42.256Z,99916.09
2022-08-09T20:56:28.383Z,99911.56
2022-08-09T20:59:16.797Z,99912.75
2022-08-09T21:02:01.414Z,99905.38
2022-08-09T21:05:54.408Z,99907.34
2022-08-09T21:07:49.194Z,99914.03
2022-08-09T21:10:35.634Z,99921.06
2022-08-09T21:13:21.392Z,99877.28
2022-08-09T21:16:19.147Z,99920.78
2022-08-09T21:20:05.069Z,99916.53
2022-08-09T21:22:35.789Z,99914.09
2022-08-09T21:25:37.638Z,99902.84
2022-08-09T21:28:33.477Z,99939.78
2022-08-09T21:31:19.895Z,99927.38
2022-08-09T21:34:05.606Z,99944.56
2022-08-09T21:36:55.731Z,99917.78
2022-08-09T21:39:42.023Z,99947.19
2022-08-09T21:42:28.650Z,99950.56
2022-08-09T21:45:15.813Z,99937.75
2022-08-09T21:48:01.930Z,99924.97
2022-08-09T21:50:49.689Z,99946.97
2022-08-09T21:53:40.653Z,99945.59
2022-08-09T21:56:34.055Z,99951.25
2022-08-09T21:59:28.705Z,99934.75
2022-08-09T22:02:36.383Z,99945.00
2022-08-09T22:05:23.403Z,99888.28
2022-08-09T22:08:12.941Z,99961.00
2022-08-09T22:11:50.355Z,99959.34
2022-08-09T22:14:02.422Z,99934.47
2022-08-09T22:16:46.368Z,99940.91
2022-08-09T22:19:58.605Z,99954.56
2022-08-09T22:22:37.995Z,99948.09
2022-08-09T22:26:05.281Z,99943.84
2022-08-09T22:28:29.657Z,99943.03
2022-08-09T22:31:17.056Z,99903.69
2022-08-09T22:34:00.946Z,99926.31
2022-08-09T22:36:46.741Z,99930.50
2022-08-09T22:39:57.781Z,99945.31
2022-08-09T22:42:34.650Z,99926.50
2022-08-09T22:48:14.399Z,99919.59
2022-08-09T22:48:35.214Z,99923.13
2022-08-09T22:51:23.942Z,99925.00
2022-08-09T22:54:11.042Z,99925.22
2022-08-09T22:56:57.213Z,99889.50
2022-08-09T22:59:56.801Z,99934.34
2022-08-09T23:02:45.010Z,99933.34
2022-08-09T23:05:30.778Z,99940.94
2022-08-09T23:08:34.585Z,99933.69
2022-08-09T23:11:21.809Z,99925.25
2022-08-09T23:14:09.862Z,99864.69
2022-08-09T23:17:01.005Z,99921.22
2022-08-09T23:20:07.267Z,99890.06
2022-08-09T23:22:49.255Z,99891.97
2022-08-09T23:25:33.349Z,99923.13
2022-08-09T23:28:18.789Z,99917.88
2022-08-09T23:31:03.121Z,99896.38
2022-08-09T23:33:47.154Z,99896.38
2022-08-09T23:36:31.500Z,99890.28
2022-08-09T23:39:15.571Z,99891.66
2022-08-09T23:41:59.790Z,99927.00
2022-08-09T23:44:45.337Z,99881.53
2022-08-09T23:47:29.322Z,99899.03
2022-08-09T23:50:13.482Z,99903.78
2022-08-09T23:52:57.788Z,99866.41
2022-08-09T23:55:48.345Z,99900.75
2022-08-09T23:58:33.885Z,99878.00
